Flight Track Log - Related Links

Times and Time Zones

All times are in EDT time to prevent confusion due to time zone crossing. See the DAL6241 flight status page for this flight to view local times or setup timezone preferences in your user account.

Time Position Orientation Groundspeed Altitude Reporting Facility
EDT Latitude Longitude Course Direction KTS MPH feet Rate Location/Type
Tue 06:15:44 AM 34.2550 -77.9464 12° North 178 205 2,500  Level Washington Center
Tue 06:16:46 AM 34.3114 -77.9503 357° North 218 251 5,100 2,600 Climbing Washington Center
Tue 06:17:44 AM 34.3867 -77.9400 North 240 276 7,700 2,723 Climbing Washington Center
Tue 06:18:45 AM 34.4725 -77.9272 North 277 319 10,500 2,115 Climbing Washington Center
Tue 06:19:46 AM 34.5686 -77.9125 North 317 365 12,000 1,613 Climbing Washington Center
Tue 06:20:44 AM 34.6775 -77.8978 North 361 415 13,700 1,983 Climbing Washington Center
Tue 06:21:00 AM 34.9249 -77.8063 12° North  Level FlightAware Approximate
Tue 06:21:44 AM 34.7967 -77.8783 North 398 458 15,900  Level Washington Center
Tue 06:22:45 AM 34.9014 -77.8611 North 412 474 18,000 2,182 Climbing Washington Center
Tue 06:23:45 AM 35.0206 -77.8442 North 428 493 20,300 2,319 Climbing Washington Center
Tue 06:24:44 AM 35.1419 -77.8297 North 428 493 22,600 2,050 Climbing Washington Center
Tue 06:25:45 AM 35.2675 -77.8078 North 434 499 24,400 1,574 Climbing Washington Center
Tue 06:26:46 AM 35.3931 -77.7908 North 446 513 25,800 1,412 Climbing Washington Center
Tue 06:27:44 AM 35.5250 -77.7689 North 456 525 27,200 1,412 Climbing Washington Center
Tue 06:28:45 AM 35.6531 -77.7264 15° North 469 540 28,600 1,400 Climbing Washington Center
Tue 06:29:44 AM 35.7811 -77.6786 17° North 474 545 30,000 1,210 Climbing Washington Center
Tue 06:30:44 AM 35.9111 -77.6333 16° North 474 545 31,000 992 Climbing Washington Center
Tue 06:31:45 AM 36.0436 -77.5856 16° North 480 552 32,000 984 Climbing Washington Center
Tue 06:32:46 AM 36.1758 -77.5400 16° North 480 552 33,000 504 Climbing Washington Center
Tue 06:33:44 AM 36.3122 -77.4892 17° North 485 558 33,000  Level Washington Center
Tue 06:34:44 AM 36.4400 -77.4431 16° North 486 559 33,000  Level Washington Center
Tue 06:35:45 AM 36.5681 -77.3969 16° North 481 554 33,000  Level Washington Center
Tue 06:36:43 AM 36.6939 -77.3508 16° North 476 548 33,000  Level Washington Center
Tue 06:37:44 AM 36.8178 -77.3069 16° North 471 542 33,000  Level Washington Center
Tue 06:38:44 AM 36.9436 -77.2578 17° North 465 535 33,000  Level Washington Center
Tue 06:39:45 AM 37.0672 -77.2136 16° North 465 535 33,000  Level Washington Center
Tue 06:40:43 AM 37.1889 -77.1692 16° North 460 529 33,000  Level Washington Center
Tue 06:41:44 AM 37.3250 -77.1144 18° North 460 529 33,000  Level Washington Center
Tue 06:42:46 AM 37.4219 -77.0431 30° Northeast 449 517 33,000  Level Washington Center
Tue 06:43:44 AM 37.5461 -76.9564 29° Northeast 449 517 33,000  Level Washington Center
Tue 06:44:44 AM 37.6553 -76.8744 31° Northeast 454 522 33,000  Level Washington Center
Tue 06:45:45 AM 37.7667 -76.7922 30° Northeast 454 522 33,000  Level Washington Center
Tue 06:46:46 AM 37.8719 -76.7125 31° Northeast 467 537 33,000  Level Washington Center
Tue 06:47:46 AM 37.9831 -76.6297 30° Northeast 467 537 33,000  Level Washington Center
Tue 06:48:44 AM 38.0964 -76.5442 31° Northeast 467 537 33,000  Level Washington Center
Tue 06:49:45 AM 38.2075 -76.4583 31° Northeast 467 537 33,000  Level Washington Center
Tue 06:50:44 AM 38.3144 -76.3750 31° Northeast 461 531 33,000  Level Washington Center
Tue 06:51:45 AM 38.4194 -76.2781 36° Northeast 453 521 33,000 -151 Level Washington Center
Tue 06:52:43 AM 38.5283 -76.1783 36° Northeast 460 529 32,700 -958 Descending Washington Center
Tue 06:53:44 AM 38.6475 -76.0700 35° Northeast 476 548 31,100 -1,475 Descending Washington Center
Tue 06:54:45 AM 38.7522 -75.9722 36° Northeast 470 541 29,700 -1,400 Descending Washington Center
Tue 06:55:44 AM 38.8525 -75.8769 36° Northeast 460 529 28,300 -1,350 Descending Washington Center
Tue 06:56:45 AM 38.9506 -75.7864 36° Northeast 453 521 27,000 -639 Descending Washington Center
Tue 06:57:46 AM 39.0467 -75.6958 36° Northeast 436 502 27,000 -458 Level Washington Center
Tue 06:58:43 AM 39.1406 -75.6050 37° Northeast 429 494 26,100 -1,160 Descending Washington Center
Tue 06:59:45 AM 39.2364 -75.5139 36° Northeast 424 488 24,700 -1,438 Descending Washington Center
Tue 07:00:44 AM 39.3322 -75.4278 35° Northeast 424 488 23,200 -1,550 Descending Washington Center
Tue 07:01:45 AM 39.4258 -75.3472 34° Northeast 417 480 21,600 -1,636 Descending Washington Center
Tue 07:02:45 AM 39.5131 -75.2686 35° Northeast 398 458 19,900 -1,678 Descending Washington Center
Tue 07:03:43 AM 39.5961 -75.1903 36° Northeast 384 442 18,300 -1,412 Descending Washington Center
Tue 07:04:44 AM 39.6814 -75.1117 35° Northeast 378 435 17,100 -1,289 Descending Washington Center
Tue 07:05:44 AM 39.7561 -75.0464 34° Northeast 372 428 15,700 -1,438 Descending Washington Center
Tue 07:06:45 AM 39.8453 -74.9672 34° Northeast 361 415 14,200 -1,289 Descending Washington Center
Tue 07:07:45 AM 39.9158 -74.9044 34° Northeast 345 397 13,100 -1,187 Descending Washington Center
Tue 07:08:16 AM 39.9500 -74.8500 51° Northeast 325 374 12,400 -1,121 Descending New York TRACON
Tue 07:09:16 AM 40.0167 -74.7667 44° Northeast 305 351 11,400 -1,000 Descending New York TRACON
Tue 07:10:16 AM 40.0667 -74.6833 52° Northeast 291 335 10,400 -700 Descending New York TRACON
Tue 07:11:16 AM 40.1167 -74.6167 46° Northeast 290 334 10,000 -200 Descending New York TRACON
Tue 07:12:16 AM 40.1833 -74.5333 44° Northeast 287 330 10,000  Level New York TRACON
Tue 07:13:10 AM 40.2333 -74.4667 45° Northeast 288 331 10,000 -474 Level New York TRACON
Tue 07:14:10 AM 40.2833 -74.4000 45° Northeast 284 327 9,100 -1,000 Descending New York TRACON
Tue 07:15:10 AM 40.3333 -74.3167 52° Northeast 283 326 8,000 -1,050 Descending New York TRACON
Tue 07:16:10 AM 40.4000 -74.2500 37° Northeast 277 319 7,000 -500 Descending New York TRACON
Tue 07:17:10 AM 40.4500 -74.1833 45° Northeast 281 323 7,000  Level New York TRACON
Tue 07:18:10 AM 40.5000 -74.1167 45° Northeast 270 311 7,000 -750 Level New York TRACON
Tue 07:19:10 AM 40.5667 -74.0500 37° Northeast 267 307 5,500 -1,750 Descending New York TRACON
Tue 07:20:10 AM 40.6333 -74.0000 30° Northeast 250 288 3,500 -1,800 Descending New York TRACON
Tue 07:21:10 AM 40.6833 -73.9667 27° Northeast 234 269 1,900 -1,100 Descending New York TRACON
Tue 07:22:10 AM 40.7167 -73.9167 49° Northeast 146 168 1,300 -650 Descending New York TRACON
Tue 07:23:10 AM 40.7500 -73.9000 21° North 122 140 600 -700 Descending New York TRACON
Tue 07:25:00 AM 40.7667 -73.8667 30° Northeast  Level FlightAware Approximate

Login

Don't have an account? Register now (free) for customized features, flight alerts, and more!